sensor_id;sensor_type;location;lat;lon;timestamp;temperature;humidity
34135;DHT22;20410;55.578;12.968;2022-08-27T00:02:13;21.40;99.90
34135;DHT22;20410;55.578;12.968;2022-08-27T00:04:40;21.40;99.90
34135;DHT22;20410;55.578;12.968;2022-08-27T00:07:06;21.50;99.90
34135;DHT22;20410;55.578;12.968;2022-08-27T00:09:33;21.50;99.90
34135;DHT22;20410;55.578;12.968;2022-08-27T00:11:59;21.50;99.90
34135;DHT22;20410;55.578;12.968;2022-08-27T00:14:26;21.40;99.90
34135;DHT22;20410;55.578;12.968;2022-08-27T00:16:52;21.50;99.90
34135;DHT22;20410;55.578;12.968;2022-08-27T00:19:17;21.50;99.90
34135;DHT22;20410;55.578;12.968;2022-08-27T00:21:43;21.60;99.90
34135;DHT22;20410;55.578;12.968;2022-08-27T00:24:09;21.60;99.90
34135;DHT22;20410;55.578;12.968;2022-08-27T00:26:36;21.70;99.90
34135;DHT22;20410;55.578;12.968;2022-08-27T00:29:02;21.70;99.90
34135;DHT22;20410;55.578;12.968;2022-08-27T00:31:28;21.80;99.90
34135;DHT22;20410;55.578;12.968;2022-08-27T00:33:54;21.80;99.90
34135;DHT22;20410;55.578;12.968;2022-08-27T00:36:20;21.90;99.90
34135;DHT22;20410;55.578;12.968;2022-08-27T00:38:46;21.90;99.90
34135;DHT22;20410;55.578;12.968;2022-08-27T00:41:12;22.00;99.90
34135;DHT22;20410;55.578;12.968;2022-08-27T00:46:26;22.10;99.90
34135;DHT22;20410;55.578;12.968;2022-08-27T00:48:55;22.10;99.90
34135;DHT22;20410;55.578;12.968;2022-08-27T00:51:22;22.10;99.90
34135;DHT22;20410;55.578;12.968;2022-08-27T00:53:49;22.20;99.90
34135;DHT22;20410;55.578;12.968;2022-08-27T00:56:19;22.10;99.90
34135;DHT22;20410;55.578;12.968;2022-08-27T00:58:49;22.20;99.90
34135;DHT22;20410;55.578;12.968;2022-08-27T01:01:18;22.10;99.90
34135;DHT22;20410;55.578;12.968;2022-08-27T01:03:48;22.10;99.90
34135;DHT22;20410;55.578;12.968;2022-08-27T01:06:16;22.10;99.90
34135;DHT22;20410;55.578;12.968;2022-08-27T01:08:50;22.10;99.90
34135;DHT22;20410;55.578;12.968;2022-08-27T01:11:16;22.00;99.90
34135;DHT22;20410;55.578;12.968;2022-08-27T01:13:42;22.00;99.90
34135;DHT22;20410;55.578;12.968;2022-08-27T01:16:09;22.00;99.90
34135;DHT22;20410;55.578;12.968;2022-08-27T01:18:36;22.00;99.90
34135;DHT22;20410;55.578;12.968;2022-08-27T01:21:21;22.00;99.90
34135;DHT22;20410;55.578;12.968;2022-08-27T01:24:01;22.10;99.90
34135;DHT22;20410;55.578;12.968;2022-08-27T01:26:28;22.10;99.90
34135;DHT22;20410;55.578;12.968;2022-08-27T01:28:54;22.10;99.90
34135;DHT22;20410;55.578;12.968;2022-08-27T01:31:20;22.10;99.90
34135;DHT22;20410;55.578;12.968;2022-08-27T01:33:59;22.10;99.90
34135;DHT22;20410;55.578;12.968;2022-08-27T01:36:25;22.10;99.90
34135;DHT22;20410;55.578;12.968;2022-08-27T01:38:50;22.10;99.90
34135;DHT22;20410;55.578;12.968;2022-08-27T01:41:16;22.10;99.90
34135;DHT22;20410;55.578;12.968;2022-08-27T01:43:42;22.10;99.90
34135;DHT22;20410;55.578;12.968;2022-08-27T01:46:08;22.00;99.90
34135;DHT22;20410;55.578;12.968;2022-08-27T01:48:33;22.00;99.90
34135;DHT22;20410;55.578;12.968;2022-08-27T01:50:59;22.00;99.90
34135;DHT22;20410;55.578;12.968;2022-08-27T01:53:25;22.00;99.90
34135;DHT22;20410;55.578;12.968;2022-08-27T01:55:52;22.00;99.90
34135;DHT22;20410;55.578;12.968;2022-08-27T01:58:20;22.00;99.90
34135;DHT22;20410;55.578;12.968;2022-08-27T02:00:50;22.00;99.90
34135;DHT22;20410;55.578;12.968;2022-08-27T02:03:16;22.00;99.90
34135;DHT22;20410;55.578;12.968;2022-08-27T02:05:43;22.00;99.90
34135;DHT22;20410;55.578;12.968;2022-08-27T02:08:09;22.10;99.90
34135;DHT22;20410;55.578;12.968;2022-08-27T02:10:37;22.10;99.90
34135;DHT22;20410;55.578;12.968;2022-08-27T02:13:04;22.10;99.90
34135;DHT22;20410;55.578;12.968;2022-08-27T02:15:31;22.00;99.90
34135;DHT22;20410;55.578;12.968;2022-08-27T02:17:58;22.00;99.90
34135;DHT22;20410;55.578;12.968;2022-08-27T02:20:25;21.90;99.90
34135;DHT22;20410;55.578;12.968;2022-08-27T02:22:51;21.90;99.90
34135;DHT22;20410;55.578;12.968;2022-08-27T02:25:17;21.80;99.90
34135;DHT22;20410;55.578;12.968;2022-08-27T02:27:45;21.80;99.90
34135;DHT22;20410;55.578;12.968;2022-08-27T02:30:14;21.80;99.90
34135;DHT22;20410;55.578;12.968;2022-08-27T02:32:40;21.80;99.90
34135;DHT22;20410;55.578;12.968;2022-08-27T02:35:06;21.90;99.90
34135;DHT22;20410;55.578;12.968;2022-08-27T02:37:34;21.80;99.90
34135;DHT22;20410;55.578;12.968;2022-08-27T02:40:03;21.80;99.90
34135;DHT22;20410;55.578;12.968;2022-08-27T02:42:28;21.80;99.90
34135;DHT22;20410;55.578;12.968;2022-08-27T02:44:54;21.80;99.90
34135;DHT22;20410;55.578;12.968;2022-08-27T02:47:20;21.70;99.90
34135;DHT22;20410;55.578;12.968;2022-08-27T02:49:45;21.60;99.90
34135;DHT22;20410;55.578;12.968;2022-08-27T02:52:11;21.40;99.90
34135;DHT22;20410;55.578;12.968;2022-08-27T02:54:37;21.20;99.90
34135;DHT22;20410;55.578;12.968;2022-08-27T02:57:02;21.10;99.90
34135;DHT22;20410;55.578;12.968;2022-08-27T02:59:28;21.10;99.90
34135;DHT22;20410;55.578;12.968;2022-08-27T03:01:53;21.10;99.90
34135;DHT22;20410;55.578;12.968;2022-08-27T03:04:19;21.00;99.90
34135;DHT22;20410;55.578;12.968;2022-08-27T03:06:47;21.00;99.90
34135;DHT22;20410;55.578;12.968;2022-08-27T03:09:13;20.90;99.90
34135;DHT22;20410;55.578;12.968;2022-08-27T03:11:39;20.90;99.90
34135;DHT22;20410;55.578;12.968;2022-08-27T03:14:05;20.80;99.90
34135;DHT22;20410;55.578;12.968;2022-08-27T03:16:36;20.80;99.90
34135;DHT22;20410;55.578;12.968;2022-08-27T03:19:06;20.80;99.90
34135;DHT22;20410;55.578;12.968;2022-08-27T03:21:33;20.80;99.90
34135;DHT22;20410;55.578;12.968;2022-08-27T03:23:59;20.80;99.90
34135;DHT22;20410;55.578;12.968;2022-08-27T03:26:29;20.80;99.90
34135;DHT22;20410;55.578;12.968;2022-08-27T03:28:56;20.90;99.90
34135;DHT22;20410;55.578;12.968;2022-08-27T03:31:24;20.90;99.90
34135;DHT22;20410;55.578;12.968;2022-08-27T03:33:59;20.90;99.90
34135;DHT22;20410;55.578;12.968;2022-08-27T03:36:26;20.80;99.90
34135;DHT22;20410;55.578;12.968;2022-08-27T03:38:53;20.80;99.90
34135;DHT22;20410;55.578;12.968;2022-08-27T03:41:19;20.90;99.90
34135;DHT22;20410;55.578;12.968;2022-08-27T03:43:45;20.90;99.90
34135;DHT22;20410;55.578;12.968;2022-08-27T03:46:11;21.00;99.90
34135;DHT22;20410;55.578;12.968;2022-08-27T03:48:38;21.00;99.90
34135;DHT22;20410;55.578;12.968;2022-08-27T03:51:09;21.10;99.90
34135;DHT22;20410;55.578;12.968;2022-08-27T03:53:37;21.20;99.90
34135;DHT22;20410;55.578;12.968;2022-08-27T03:56:03;21.30;99.90
34135;DHT22;20410;55.578;12.968;2022-08-27T03:58:31;21.30;99.90
34135;DHT22;20410;55.578;12.968;2022-08-27T04:00:56;21.30;99.90
34135;DHT22;20410;55.578;12.968;2022-08-27T04:03:23;21.30;99.90
34135;DHT22;20410;55.578;12.968;2022-08-27T04:05:55;21.30;99.90
34135;DHT22;20410;55.578;12.968;2022-08-27T04:08:22;21.30;99.90
34135;DHT22;20410;55.578;12.968;2022-08-27T04:10:49;21.30;99.90
34135;DHT22;20410;55.578;12.968;2022-08-27T04:13:15;21.30;99.90
34135;DHT22;20410;55.578;12.968;2022-08-27T04:15:46;21.30;99.90
34135;DHT22;20410;55.578;12.968;2022-08-27T04:18:12;21.30;99.90
34135;DHT22;20410;55.578;12.968;2022-08-27T04:20:39;21.30;99.90
34135;DHT22;20410;55.578;12.968;2022-08-27T04:23:05;21.30;99.90
34135;DHT22;20410;55.578;12.968;2022-08-27T04:25:31;21.20;99.90
34135;DHT22;20410;55.578;12.968;2022-08-27T04:27:57;21.20;99.90
34135;DHT22;20410;55.578;12.968;2022-08-27T04:30:23;21.10;99.90
34135;DHT22;20410;55.578;12.968;2022-08-27T04:32:49;21.10;99.90
34135;DHT22;20410;55.578;12.968;2022-08-27T04:35:15;21.10;99.90
34135;DHT22;20410;55.578;12.968;2022-08-27T04:37:41;21.10;99.90
34135;DHT22;20410;55.578;12.968;2022-08-27T04:40:07;21.10;99.90
34135;DHT22;20410;55.578;12.968;2022-08-27T04:42:33;21.10;99.90
34135;DHT22;20410;55.578;12.968;2022-08-27T04:44:58;21.10;99.90
34135;DHT22;20410;55.578;12.968;2022-08-27T04:47:24;20.90;99.90
34135;DHT22;20410;55.578;12.968;2022-08-27T04:49:49;20.80;99.90
34135;DHT22;20410;55.578;12.968;2022-08-27T04:52:15;20.80;99.90
34135;DHT22;20410;55.578;12.968;2022-08-27T04:54:41;20.80;99.90
34135;DHT22;20410;55.578;12.968;2022-08-27T04:57:06;20.80;99.90
34135;DHT22;20410;55.578;12.968;2022-08-27T04:59:33;20.80;99.90
34135;DHT22;20410;55.578;12.968;2022-08-27T05:02:00;20.70;99.90
34135;DHT22;20410;55.578;12.968;2022-08-27T05:04:26;20.60;99.90
34135;DHT22;20410;55.578;12.968;2022-08-27T05:06:51;20.60;99.90
34135;DHT22;20410;55.578;12.968;2022-08-27T05:09:17;20.60;99.90
34135;DHT22;20410;55.578;12.968;2022-08-27T05:11:43;20.50;99.90
34135;DHT22;20410;55.578;12.968;2022-08-27T05:14:11;20.40;99.90
34135;DHT22;20410;55.578;12.968;2022-08-27T05:16:37;20.40;99.90
34135;DHT22;20410;55.578;12.968;2022-08-27T05:19:08;20.50;99.90
34135;DHT22;20410;55.578;12.968;2022-08-27T05:21:36;20.50;99.90
34135;DHT22;20410;55.578;12.968;2022-08-27T05:24:04;20.50;99.90
34135;DHT22;20410;55.578;12.968;2022-08-27T05:26:32;20.50;99.90
34135;DHT22;20410;55.578;12.968;2022-08-27T05:28:59;20.50;99.90
34135;DHT22;20410;55.578;12.968;2022-08-27T05:31:25;20.50;99.90
34135;DHT22;20410;55.578;12.968;2022-08-27T05:33:52;20.50;99.90
34135;DHT22;20410;55.578;12.968;2022-08-27T05:36:24;20.50;99.90
34135;DHT22;20410;55.578;12.968;2022-08-27T05:38:51;20.50;99.90
34135;DHT22;20410;55.578;12.968;2022-08-27T05:41:22;20.50;99.90
34135;DHT22;20410;55.578;12.968;2022-08-27T05:43:50;20.50;99.90
34135;DHT22;20410;55.578;12.968;2022-08-27T05:46:19;20.50;99.90
34135;DHT22;20410;55.578;12.968;2022-08-27T05:48:45;20.50;99.90
34135;DHT22;20410;55.578;12.968;2022-08-27T05:51:23;20.50;99.90
34135;DHT22;20410;55.578;12.968;2022-08-27T05:53:49;20.50;99.90
34135;DHT22;20410;55.578;12.968;2022-08-27T05:56:21;20.60;99.90
34135;DHT22;20410;55.578;12.968;2022-08-27T05:58:48;20.50;99.90
34135;DHT22;20410;55.578;12.968;2022-08-27T06:01:39;20.50;99.90
34135;DHT22;20410;55.578;12.968;2022-08-27T06:04:06;20.50;99.90
34135;DHT22;20410;55.578;12.968;2022-08-27T06:06:34;20.50;99.90
34135;DHT22;20410;55.578;12.968;2022-08-27T06:09:00;20.50;99.90
34135;DHT22;20410;55.578;12.968;2022-08-27T06:11:26;20.50;99.90
34135;DHT22;20410;55.578;12.968;2022-08-27T06:13:52;20.60;99.90
34135;DHT22;20410;55.578;12.968;2022-08-27T06:16:18;20.60;99.90
34135;DHT22;20410;55.578;12.968;2022-08-27T06:18:45;20.60;99.90
34135;DHT22;20410;55.578;12.968;2022-08-27T06:21:13;20.70;99.90
34135;DHT22;20410;55.578;12.968;2022-08-27T06:23:39;20.70;99.90
34135;DHT22;20410;55.578;12.968;2022-08-27T06:26:07;20.70;99.90
34135;DHT22;20410;55.578;12.968;2022-08-27T06:28:33;20.70;99.90
34135;DHT22;20410;55.578;12.968;2022-08-27T06:31:08;20.80;99.90
34135;DHT22;20410;55.578;12.968;2022-08-27T06:33:35;20.90;99.90
34135;DHT22;20410;55.578;12.968;2022-08-27T06:36:03;20.90;99.90
34135;DHT22;20410;55.578;12.968;2022-08-27T06:38:30;21.00;99.90
34135;DHT22;20410;55.578;12.968;2022-08-27T06:40:56;21.00;99.90
34135;DHT22;20410;55.578;12.968;2022-08-27T06:43:22;21.10;99.90
34135;DHT22;20410;55.578;12.968;2022-08-27T06:45:49;21.10;99.90
34135;DHT22;20410;55.578;12.968;2022-08-27T06:48:15;21.10;99.90
34135;DHT22;20410;55.578;12.968;2022-08-27T06:50:41;21.20;99.90
34135;DHT22;20410;55.578;12.968;2022-08-27T06:53:07;21.20;99.90
34135;DHT22;20410;55.578;12.968;2022-08-27T06:55:40;21.30;99.90
34135;DHT22;20410;55.578;12.968;2022-08-27T06:58:06;21.30;99.90
34135;DHT22;20410;55.578;12.968;2022-08-27T07:00:32;21.30;99.90
34135;DHT22;20410;55.578;12.968;2022-08-27T07:02:57;21.30;99.90
34135;DHT22;20410;55.578;12.968;2022-08-27T07:05:24;21.30;99.90
34135;DHT22;20410;55.578;12.968;2022-08-27T07:07:50;21.30;99.90
34135;DHT22;20410;55.578;12.968;2022-08-27T07:10:15;21.30;99.90
34135;DHT22;20410;55.578;12.968;2022-08-27T07:12:41;21.30;99.90
34135;DHT22;20410;55.578;12.968;2022-08-27T07:15:07;21.20;99.90
34135;DHT22;20410;55.578;12.968;2022-08-27T07:17:33;21.30;99.90
34135;DHT22;20410;55.578;12.968;2022-08-27T07:19:58;21.30;99.90
34135;DHT22;20410;55.578;12.968;2022-08-27T07:22:24;21.40;99.90
34135;DHT22;20410;55.578;12.968;2022-08-27T07:24:50;21.50;99.90
34135;DHT22;20410;55.578;12.968;2022-08-27T07:27:17;21.40;99.90
34135;DHT22;20410;55.578;12.968;2022-08-27T07:29:44;21.40;99.90
34135;DHT22;20410;55.578;12.968;2022-08-27T07:32:10;21.50;99.90
34135;DHT22;20410;55.578;12.968;2022-08-27T07:34:35;21.60;99.90
34135;DHT22;20410;55.578;12.968;2022-08-27T07:37:01;21.60;99.90
34135;DHT22;20410;55.578;12.968;2022-08-27T07:39:27;21.50;99.90
34135;DHT22;20410;55.578;12.968;2022-08-27T07:41:55;21.40;99.90
34135;DHT22;20410;55.578;12.968;2022-08-27T07:44:39;21.40;99.90
34135;DHT22;20410;55.578;12.968;2022-08-27T07:47:05;21.40;99.90
34135;DHT22;20410;55.578;12.968;2022-08-27T07:49:31;21.50;99.90
34135;DHT22;20410;55.578;12.968;2022-08-27T07:51:59;21.60;99.90
34135;DHT22;20410;55.578;12.968;2022-08-27T07:54:25;21.70;99.90
34135;DHT22;20410;55.578;12.968;2022-08-27T07:56:51;21.80;99.90
34135;DHT22;20410;55.578;12.968;2022-08-27T07:59:17;21.70;99.90
34135;DHT22;20410;55.578;12.968;2022-08-27T08:01:43;21.70;99.90
34135;DHT22;20410;55.578;12.968;2022-08-27T08:04:09;21.70;99.90
34135;DHT22;20410;55.578;12.968;2022-08-27T08:06:37;21.70;99.90
34135;DHT22;20410;55.578;12.968;2022-08-27T08:09:04;21.80;99.90
34135;DHT22;20410;55.578;12.968;2022-08-27T08:11:29;21.80;99.90
34135;DHT22;20410;55.578;12.968;2022-08-27T08:13:55;21.80;99.90
34135;DHT22;20410;55.578;12.968;2022-08-27T08:16:24;21.80;99.90
34135;DHT22;20410;55.578;12.968;2022-08-27T08:18:50;21.80;99.90
34135;DHT22;20410;55.578;12.968;2022-08-27T08:21:16;21.90;99.90
34135;DHT22;20410;55.578;12.968;2022-08-27T08:23:42;21.90;99.90
34135;DHT22;20410;55.578;12.968;2022-08-27T08:26:08;21.90;99.90
34135;DHT22;20410;55.578;12.968;2022-08-27T08:28:34;21.80;99.90
34135;DHT22;20410;55.578;12.968;2022-08-27T08:31:01;21.80;99.90
34135;DHT22;20410;55.578;12.968;2022-08-27T08:33:26;21.70;99.90
34135;DHT22;20410;55.578;12.968;2022-08-27T08:35:53;21.70;99.90
34135;DHT22;20410;55.578;12.968;2022-08-27T08:38:19;21.80;99.90
34135;DHT22;20410;55.578;12.968;2022-08-27T08:40:47;21.80;99.90
34135;DHT22;20410;55.578;12.968;2022-08-27T08:45:55;22.00;99.90
34135;DHT22;20410;55.578;12.968;2022-08-27T08:48:24;22.00;99.90
34135;DHT22;20410;55.578;12.968;2022-08-27T08:50:58;22.10;99.90
34135;DHT22;20410;55.578;12.968;2022-08-27T08:56:25;22.10;99.90
34135;DHT22;20410;55.578;12.968;2022-08-27T08:59:02;22.10;99.90
34135;DHT22;20410;55.578;12.968;2022-08-27T09:01:32;22.00;99.90
34135;DHT22;20410;55.578;12.968;2022-08-27T09:04:03;21.90;99.90
34135;DHT22;20410;55.578;12.968;2022-08-27T09:06:42;21.90;99.90
34135;DHT22;20410;55.578;12.968;2022-08-27T09:12:08;22.10;99.90
34135;DHT22;20410;55.578;12.968;2022-08-27T09:15:08;22.00;99.90
34135;DHT22;20410;55.578;12.968;2022-08-27T09:17:37;21.90;99.90
34135;DHT22;20410;55.578;12.968;2022-08-27T09:20:04;21.90;99.90
34135;DHT22;20410;55.578;12.968;2022-08-27T09:22:59;21.80;99.90
34135;DHT22;20410;55.578;12.968;2022-08-27T09:25:31;21.80;99.90
34135;DHT22;20410;55.578;12.968;2022-08-27T09:28:02;21.70;99.90
34135;DHT22;20410;55.578;12.968;2022-08-27T09:30:31;21.70;99.90
34135;DHT22;20410;55.578;12.968;2022-08-27T09:33:02;21.70;99.90
34135;DHT22;20410;55.578;12.968;2022-08-27T09:35:43;21.70;99.90
34135;DHT22;20410;55.578;12.968;2022-08-27T09:38:10;21.70;99.90
34135;DHT22;20410;55.578;12.968;2022-08-27T09:40:44;21.80;99.90
34135;DHT22;20410;55.578;12.968;2022-08-27T09:45:53;21.90;99.90
34135;DHT22;20410;55.578;12.968;2022-08-27T09:48:34;21.80;99.90
34135;DHT22;20410;55.578;12.968;2022-08-27T09:51:09;21.70;99.90
34135;DHT22;20410;55.578;12.968;2022-08-27T09:53:54;21.70;99.90
34135;DHT22;20410;55.578;12.968;2022-08-27T09:59:11;21.70;99.90
34135;DHT22;20410;55.578;12.968;2022-08-27T10:01:51;21.80;99.90
34135;DHT22;20410;55.578;12.968;2022-08-27T10:04:35;21.80;99.90
34135;DHT22;20410;55.578;12.968;2022-08-27T10:07:25;21.90;99.90
34135;DHT22;20410;55.578;12.968;2022-08-27T10:10:16;22.00;99.90
34135;DHT22;20410;55.578;12.968;2022-08-27T10:13:00;22.00;99.90
34135;DHT22;20410;55.578;12.968;2022-08-27T10:18:13;22.00;99.90
34135;DHT22;20410;55.578;12.968;2022-08-27T10:23:44;21.80;99.90
34135;DHT22;20410;55.578;12.968;2022-08-27T10:26:23;21.80;99.90
34135;DHT22;20410;55.578;12.968;2022-08-27T10:29:06;21.80;99.90
34135;DHT22;20410;55.578;12.968;2022-08-27T10:32:01;21.80;99.90
34135;DHT22;20410;55.578;12.968;2022-08-27T10:34:54;21.80;99.90
34135;DHT22;20410;55.578;12.968;2022-08-27T10:40:26;21.70;99.90
34135;DHT22;20410;55.578;12.968;2022-08-27T10:55:42;21.50;99.90
34135;DHT22;20410;55.578;12.968;2022-08-27T11:01:21;21.50;99.90
34135;DHT22;20410;55.578;12.968;2022-08-27T11:03:53;21.50;99.90
34135;DHT22;20410;55.578;12.968;2022-08-27T11:06:29;21.50;99.90
34135;DHT22;20410;55.578;12.968;2022-08-27T11:09:09;21.50;99.90
34135;DHT22;20410;55.578;12.968;2022-08-27T11:11:52;21.60;99.90
34135;DHT22;20410;55.578;12.968;2022-08-27T11:14:33;21.70;99.90
34135;DHT22;20410;55.578;12.968;2022-08-27T11:17:12;21.70;99.90
34135;DHT22;20410;55.578;12.968;2022-08-27T11:20:15;21.80;99.90
34135;DHT22;20410;55.578;12.968;2022-08-27T11:23:02;21.70;99.90
34135;DHT22;20410;55.578;12.968;2022-08-27T11:25:55;21.50;99.90
34135;DHT22;20410;55.578;12.968;2022-08-27T11:28:57;21.50;99.90
34135;DHT22;20410;55.578;12.968;2022-08-27T11:33:51;21.40;99.90
34135;DHT22;20410;55.578;12.968;2022-08-27T11:39:15;21.50;99.90
34135;DHT22;20410;55.578;12.968;2022-08-27T11:41:53;21.30;99.90
34135;DHT22;20410;55.578;12.968;2022-08-27T11:44:25;21.30;99.90
34135;DHT22;20410;55.578;12.968;2022-08-27T11:49:50;21.20;99.90
34135;DHT22;20410;55.578;12.968;2022-08-27T11:52:32;21.30;99.90
34135;DHT22;20410;55.578;12.968;2022-08-27T11:55:25;21.30;99.90
34135;DHT22;20410;55.578;12.968;2022-08-27T12:00:47;21.40;99.90
34135;DHT22;20410;55.578;12.968;2022-08-27T12:03:23;21.30;99.90
34135;DHT22;20410;55.578;12.968;2022-08-27T12:14:00;21.10;99.90
34135;DHT22;20410;55.578;12.968;2022-08-27T12:24:56;21.40;99.90
34135;DHT22;20410;55.578;12.968;2022-08-27T12:30:27;21.40;99.90
34135;DHT22;20410;55.578;12.968;2022-08-27T12:32:55;21.40;99.90
34135;DHT22;20410;55.578;12.968;2022-08-27T12:35:36;21.40;99.90
34135;DHT22;20410;55.578;12.968;2022-08-27T12:38:44;21.40;99.90
34135;DHT22;20410;55.578;12.968;2022-08-27T12:41:34;21.40;99.90
34135;DHT22;20410;55.578;12.968;2022-08-27T12:44:31;21.50;99.90
34135;DHT22;20410;55.578;12.968;2022-08-27T12:47:10;21.50;99.90
34135;DHT22;20410;55.578;12.968;2022-08-27T12:49:57;21.40;99.90
34135;DHT22;20410;55.578;12.968;2022-08-27T12:52:49;21.50;99.90
34135;DHT22;20410;55.578;12.968;2022-08-27T13:04:00;21.70;99.90
34135;DHT22;20410;55.578;12.968;2022-08-27T13:06:32;21.70;99.90
34135;DHT22;20410;55.578;12.968;2022-08-27T13:09:05;21.70;99.90
34135;DHT22;20410;55.578;12.968;2022-08-27T13:11:43;21.60;99.90
34135;DHT22;20410;55.578;12.968;2022-08-27T13:14:12;21.50;99.90
34135;DHT22;20410;55.578;12.968;2022-08-27T13:16:43;21.50;99.90
34135;DHT22;20410;55.578;12.968;2022-08-27T13:19:30;21.50;99.90
34135;DHT22;20410;55.578;12.968;2022-08-27T13:21:57;21.50;99.90
34135;DHT22;20410;55.578;12.968;2022-08-27T13:24:50;21.50;99.90
34135;DHT22;20410;55.578;12.968;2022-08-27T13:27:23;21.50;99.90
34135;DHT22;20410;55.578;12.968;2022-08-27T13:29:49;21.50;99.90
34135;DHT22;20410;55.578;12.968;2022-08-27T13:32:16;21.50;99.90
34135;DHT22;20410;55.578;12.968;2022-08-27T13:34:42;21.50;99.90
34135;DHT22;20410;55.578;12.968;2022-08-27T13:37:24;21.50;99.90
34135;DHT22;20410;55.578;12.968;2022-08-27T13:39:52;21.50;99.90
34135;DHT22;20410;55.578;12.968;2022-08-27T13:42:19;21.50;99.90
34135;DHT22;20410;55.578;12.968;2022-08-27T13:44:45;21.50;99.90
34135;DHT22;20410;55.578;12.968;2022-08-27T13:47:21;21.50;99.90
34135;DHT22;20410;55.578;12.968;2022-08-27T13:49:47;21.40;99.90
34135;DHT22;20410;55.578;12.968;2022-08-27T13:52:24;21.30;99.90
34135;DHT22;20410;55.578;12.968;2022-08-27T13:55:09;21.30;99.90
34135;DHT22;20410;55.578;12.968;2022-08-27T13:57:42;21.30;99.90
34135;DHT22;20410;55.578;12.968;2022-08-27T14:00:14;21.30;99.90
34135;DHT22;20410;55.578;12.968;2022-08-27T14:02:41;21.30;99.90
34135;DHT22;20410;55.578;12.968;2022-08-27T14:05:12;21.40;99.90
34135;DHT22;20410;55.578;12.968;2022-08-27T14:07:44;21.40;99.90
34135;DHT22;20410;55.578;12.968;2022-08-27T14:12:52;21.30;99.90
34135;DHT22;20410;55.578;12.968;2022-08-27T14:15:41;21.30;99.90
34135;DHT22;20410;55.578;12.968;2022-08-27T14:18:25;21.40;99.90
34135;DHT22;20410;55.578;12.968;2022-08-27T14:20:52;21.40;99.90
34135;DHT22;20410;55.578;12.968;2022-08-27T14:23:18;21.30;99.90
34135;DHT22;20410;55.578;12.968;2022-08-27T14:25:44;21.30;99.90
34135;DHT22;20410;55.578;12.968;2022-08-27T14:28:10;21.30;99.90
34135;DHT22;20410;55.578;12.968;2022-08-27T14:30:35;21.30;99.90
34135;DHT22;20410;55.578;12.968;2022-08-27T14:33:01;21.20;99.90
34135;DHT22;20410;55.578;12.968;2022-08-27T14:35:31;21.20;99.90
34135;DHT22;20410;55.578;12.968;2022-08-27T14:38:02;21.20;99.90
34135;DHT22;20410;55.578;12.968;2022-08-27T14:40:29;21.20;99.90
34135;DHT22;20410;55.578;12.968;2022-08-27T14:42:55;21.20;99.90
34135;DHT22;20410;55.578;12.968;2022-08-27T14:45:22;21.20;99.90
34135;DHT22;20410;55.578;12.968;2022-08-27T14:47:48;21.20;99.90
34135;DHT22;20410;55.578;12.968;2022-08-27T14:50:15;21.30;99.90
34135;DHT22;20410;55.578;12.968;2022-08-27T14:52:41;21.30;99.90
34135;DHT22;20410;55.578;12.968;2022-08-27T14:55:08;21.40;99.90
34135;DHT22;20410;55.578;12.968;2022-08-27T14:57:34;21.40;99.90
34135;DHT22;20410;55.578;12.968;2022-08-27T15:00:01;21.40;99.90
34135;DHT22;20410;55.578;12.968;2022-08-27T15:02:26;21.40;99.90
34135;DHT22;20410;55.578;12.968;2022-08-27T15:04:52;21.30;99.90
34135;DHT22;20410;55.578;12.968;2022-08-27T15:07:18;21.20;99.90
34135;DHT22;20410;55.578;12.968;2022-08-27T15:09:44;21.20;99.90
34135;DHT22;20410;55.578;12.968;2022-08-27T15:12:11;21.20;99.90
34135;DHT22;20410;55.578;12.968;2022-08-27T15:14:37;21.20;99.90
34135;DHT22;20410;55.578;12.968;2022-08-27T15:17:03;21.20;99.90
34135;DHT22;20410;55.578;12.968;2022-08-27T15:19:31;21.20;99.90
34135;DHT22;20410;55.578;12.968;2022-08-27T15:22:03;21.10;99.90
34135;DHT22;20410;55.578;12.968;2022-08-27T15:24:37;21.20;99.90
34135;DHT22;20410;55.578;12.968;2022-08-27T15:27:04;21.20;99.90
34135;DHT22;20410;55.578;12.968;2022-08-27T15:29:29;21.20;99.90
34135;DHT22;20410;55.578;12.968;2022-08-27T15:31:55;21.20;99.90
34135;DHT22;20410;55.578;12.968;2022-08-27T15:34:21;21.20;99.90
34135;DHT22;20410;55.578;12.968;2022-08-27T15:36:46;21.10;99.90
34135;DHT22;20410;55.578;12.968;2022-08-27T15:39:12;21.10;99.90
34135;DHT22;20410;55.578;12.968;2022-08-27T15:41:38;21.10;99.90
34135;DHT22;20410;55.578;12.968;2022-08-27T15:44:06;21.10;99.90
34135;DHT22;20410;55.578;12.968;2022-08-27T15:46:32;21.10;99.90
34135;DHT22;20410;55.578;12.968;2022-08-27T15:48:58;21.00;99.90
34135;DHT22;20410;55.578;12.968;2022-08-27T15:51:28;21.00;99.90
34135;DHT22;20410;55.578;12.968;2022-08-27T15:53:56;21.00;99.90
34135;DHT22;20410;55.578;12.968;2022-08-27T15:56:22;20.90;99.90
34135;DHT22;20410;55.578;12.968;2022-08-27T15:58:48;20.90;99.90
34135;DHT22;20410;55.578;12.968;2022-08-27T16:01:18;20.90;99.90
34135;DHT22;20410;55.578;12.968;2022-08-27T16:03:45;21.00;99.90
34135;DHT22;20410;55.578;12.968;2022-08-27T16:06:12;20.90;99.90
34135;DHT22;20410;55.578;12.968;2022-08-27T16:08:38;20.90;99.90
34135;DHT22;20410;55.578;12.968;2022-08-27T16:11:03;20.90;99.90
34135;DHT22;20410;55.578;12.968;2022-08-27T16:13:29;20.90;99.90
34135;DHT22;20410;55.578;12.968;2022-08-27T16:15:56;20.90;99.90
34135;DHT22;20410;55.578;12.968;2022-08-27T16:18:27;20.80;99.90
34135;DHT22;20410;55.578;12.968;2022-08-27T16:20:54;20.90;99.90
34135;DHT22;20410;55.578;12.968;2022-08-27T16:23:22;20.80;99.90
34135;DHT22;20410;55.578;12.968;2022-08-27T16:25:48;20.80;99.90
34135;DHT22;20410;55.578;12.968;2022-08-27T16:28:13;20.80;99.90
34135;DHT22;20410;55.578;12.968;2022-08-27T16:30:39;20.70;99.90
34135;DHT22;20410;55.578;12.968;2022-08-27T16:33:05;20.70;99.90
34135;DHT22;20410;55.578;12.968;2022-08-27T16:35:32;20.60;99.90
34135;DHT22;20410;55.578;12.968;2022-08-27T16:37:58;20.60;99.90
34135;DHT22;20410;55.578;12.968;2022-08-27T16:40:24;20.60;99.90
34135;DHT22;20410;55.578;12.968;2022-08-27T16:42:50;20.60;99.90
34135;DHT22;20410;55.578;12.968;2022-08-27T16:45:19;20.60;99.90
34135;DHT22;20410;55.578;12.968;2022-08-27T16:47:47;20.70;99.90
34135;DHT22;20410;55.578;12.968;2022-08-27T16:50:31;20.80;99.90
34135;DHT22;20410;55.578;12.968;2022-08-27T16:52:58;20.80;99.90
34135;DHT22;20410;55.578;12.968;2022-08-27T16:55:23;20.70;99.90